createdAt,value
2023-06-05T00:02:13.962Z,5.83
2023-06-05T00:04:42.677Z,6.05
2023-06-05T00:07:10.891Z,8.13
2023-06-05T00:09:39.569Z,7.73
2023-06-05T00:12:08.783Z,8.10
2023-06-05T00:14:37.928Z,9.23
2023-06-05T00:17:08.248Z,4.93
2023-06-05T00:19:38.336Z,9.00
2023-06-05T00:22:06.957Z,8.40
2023-06-05T00:24:35.498Z,8.93
2023-06-05T00:27:03.842Z,8.23
2023-06-05T00:29:32.557Z,8.67
2023-06-05T00:32:01.625Z,10.80
2023-06-05T00:34:30.271Z,5.97
2023-06-05T00:36:59.916Z,6.63
2023-06-05T00:39:28.651Z,7.82
2023-06-05T00:41:57.025Z,8.57
2023-06-05T00:44:25.688Z,8.03
2023-06-05T00:46:54.750Z,6.17
2023-06-05T00:49:23.486Z,7.83
2023-06-05T00:51:52.678Z,6.30
2023-06-05T00:54:23.497Z,10.13
2023-06-05T00:56:53.516Z,9.03
2023-06-05T00:59:22.727Z,8.87
2023-06-05T01:01:51.724Z,4.73
2023-06-05T01:04:20.720Z,7.30
2023-06-05T01:06:49.047Z,6.47
2023-06-05T01:09:18.005Z,5.10
2023-06-05T01:11:55.935Z,5.27
2023-06-05T01:14:28.966Z,5.03
2023-06-05T01:17:01.830Z,5.57
2023-06-05T01:19:32.107Z,5.13
2023-06-05T01:22:01.102Z,4.93
2023-06-05T01:24:31.166Z,5.87
2023-06-05T01:27:05.994Z,3.93
2023-06-05T01:29:39.975Z,5.13
2023-06-05T01:32:17.059Z,5.43
2023-06-05T01:34:49.887Z,5.03
2023-06-05T01:37:20.361Z,4.73
2023-06-05T01:39:52.428Z,4.17
2023-06-05T01:42:21.810Z,5.97
2023-06-05T01:44:50.672Z,3.03
2023-06-05T01:47:19.173Z,4.67
2023-06-05T01:49:47.784Z,3.77
2023-06-05T01:52:16.275Z,4.30
2023-06-05T01:54:47.405Z,6.50
2023-06-05T01:57:17.043Z,4.60
2023-06-05T01:59:46.743Z,3.73
2023-06-05T02:02:15.738Z,5.93
2023-06-05T02:04:48.693Z,3.90
2023-06-05T02:07:18.125Z,3.77
2023-06-05T02:09:46.687Z,5.70
2023-06-05T02:12:17.394Z,4.43
2023-06-05T02:14:46.808Z,3.30
2023-06-05T02:17:15.494Z,4.10
2023-06-05T02:19:44.227Z,5.27
2023-06-05T02:22:12.773Z,4.97
2023-06-05T02:24:41.572Z,4.60
2023-06-05T02:27:11.334Z,5.33
2023-06-05T02:29:41.387Z,3.30
2023-06-05T02:32:11.124Z,5.73
2023-06-05T02:34:39.881Z,7.87
2023-06-05T02:37:09.414Z,7.30
2023-06-05T02:39:37.952Z,5.60
2023-06-05T02:42:09.344Z,4.13
2023-06-05T02:44:37.934Z,7.47
2023-06-05T02:47:08.191Z,8.40
2023-06-05T02:49:38.177Z,5.10
2023-06-05T02:52:07.700Z,6.37
2023-06-05T02:54:36.429Z,10.27
2023-06-05T02:57:07.943Z,5.67
2023-06-05T02:59:40.805Z,4.97
2023-06-05T03:02:15.023Z,6.10
2023-06-05T03:04:50.136Z,3.90
2023-06-05T03:07:19.050Z,5.37
2023-06-05T03:09:48.007Z,4.60
2023-06-05T03:12:16.481Z,4.47
2023-06-05T03:14:45.328Z,4.23
2023-06-05T03:17:15.163Z,7.13
2023-06-05T03:19:43.961Z,8.67
2023-06-05T03:22:12.484Z,4.20
2023-06-05T03:24:41.244Z,5.90
2023-06-05T03:27:11.473Z,4.33
2023-06-05T03:29:40.750Z,5.90
2023-06-05T03:32:09.117Z,7.53
2023-06-05T03:34:39.592Z,5.80
2023-06-05T03:37:08.085Z,4.87
2023-06-05T03:39:36.828Z,7.30
2023-06-05T03:42:08.037Z,5.20
2023-06-05T03:44:36.660Z,7.43
2023-06-05T03:47:05.546Z,4.53
2023-06-05T03:49:36.893Z,5.87
2023-06-05T03:52:09.658Z,5.73
2023-06-05T03:54:39.781Z,6.03
2023-06-05T03:57:13.509Z,7.60
2023-06-05T03:59:43.666Z,5.00
2023-06-05T04:02:12.179Z,7.33
2023-06-05T04:04:40.913Z,4.60
2023-06-05T04:07:10.976Z,6.77
2023-06-05T04:09:39.568Z,5.00
2023-06-05T04:12:08.505Z,7.27
2023-06-05T04:14:39.647Z,4.20
2023-06-05T04:17:08.789Z,4.50
2023-06-05T04:19:37.640Z,4.87
2023-06-05T04:22:06.647Z,9.57
2023-06-05T04:24:39.899Z,6.97
2023-06-05T04:27:09.685Z,5.80
2023-06-05T04:29:38.788Z,8.40
2023-06-05T04:32:08.534Z,6.47
2023-06-05T04:34:37.251Z,5.30
2023-06-05T04:37:05.707Z,5.33
2023-06-05T04:42:15.058Z,8.27
2023-06-05T04:44:48.725Z,6.77
2023-06-05T04:47:17.218Z,7.33
2023-06-05T04:49:48.546Z,4.40
2023-06-05T04:52:17.732Z,8.03
2023-06-05T04:54:46.580Z,3.83
2023-06-05T04:57:17.439Z,5.80
2023-06-05T04:59:46.203Z,6.80
2023-06-05T05:02:17.058Z,6.70
2023-06-05T05:04:47.769Z,9.00
2023-06-05T05:07:17.543Z,6.10
2023-06-05T05:09:47.511Z,8.20
2023-06-05T05:12:17.963Z,6.77
2023-06-05T05:14:46.933Z,6.43
2023-06-05T05:17:18.186Z,5.10
2023-06-05T05:19:46.923Z,9.50
2023-06-05T05:22:15.824Z,8.00
2023-06-05T05:24:44.530Z,7.53
2023-06-05T05:27:12.858Z,6.80
2023-06-05T05:29:42.840Z,5.37
2023-06-05T05:32:11.607Z,5.53
2023-06-05T05:34:40.401Z,7.23
2023-06-05T05:37:09.178Z,6.10
2023-06-05T05:39:38.025Z,5.53
2023-06-05T05:42:07.184Z,7.07
2023-06-05T05:44:36.999Z,6.20
2023-06-05T05:47:07.173Z,6.73
2023-06-05T05:49:36.374Z,7.67
2023-06-05T05:52:05.227Z,5.30
2023-06-05T05:54:33.769Z,5.27
2023-06-05T05:57:02.612Z,6.70
2023-06-05T05:59:31.130Z,3.83
2023-06-05T06:02:01.962Z,5.60
2023-06-05T06:04:32.135Z,4.67
2023-06-05T06:07:02.111Z,4.65
2023-06-05T06:09:31.236Z,11.32
2023-06-05T06:12:03.737Z,6.65
2023-06-05T06:14:32.325Z,6.35
2023-06-05T06:17:00.567Z,6.25
2023-06-05T06:19:29.883Z,4.45
2023-06-05T06:21:59.706Z,6.68
2023-06-05T06:24:28.367Z,7.18
2023-06-05T06:26:57.240Z,6.95
2023-06-05T06:29:28.743Z,8.20
2023-06-05T06:31:57.708Z,5.47
2023-06-05T06:34:27.461Z,4.78
2023-06-05T06:36:55.832Z,5.60
2023-06-05T06:39:27.054Z,5.25
2023-06-05T06:41:55.392Z,5.00
2023-06-05T06:44:24.987Z,7.45
2023-06-05T06:46:53.343Z,9.35
2023-06-05T06:49:22.063Z,7.30
2023-06-05T06:51:50.453Z,5.93
2023-06-05T06:54:19.065Z,3.53
2023-06-05T06:56:48.675Z,2.88
2023-06-05T06:59:17.360Z,4.30
2023-06-05T07:01:48.078Z,3.75
2023-06-05T07:04:21.104Z,4.25
2023-06-05T07:06:49.933Z,6.43
2023-06-05T07:09:19.032Z,3.00
2023-06-05T07:11:49.744Z,4.63
2023-06-05T07:14:18.460Z,5.80
2023-06-05T07:16:47.042Z,4.50
2023-06-05T07:19:17.338Z,6.13
2023-06-05T07:21:45.529Z,3.55
2023-06-05T07:24:15.569Z,5.50
2023-06-05T07:26:44.044Z,5.32
2023-06-05T07:29:14.108Z,3.55
2023-06-05T07:31:43.018Z,3.42
2023-06-05T07:34:13.909Z,6.57
2023-06-05T07:36:42.455Z,6.70
2023-06-05T07:39:12.561Z,3.53
2023-06-05T07:41:41.005Z,1.90
2023-06-05T07:44:11.327Z,5.05
2023-06-05T07:46:41.957Z,4.30
2023-06-05T07:49:11.192Z,5.43
2023-06-05T07:51:40.900Z,3.90
2023-06-05T07:54:11.429Z,3.83
2023-06-05T07:56:40.220Z,6.05
2023-06-05T07:59:09.873Z,3.67
2023-06-05T08:01:41.134Z,2.50
2023-06-05T08:04:12.014Z,4.35
2023-06-05T08:06:41.387Z,3.22
2023-06-05T08:09:11.378Z,2.83
2023-06-05T08:11:41.383Z,3.72
2023-06-05T08:14:10.050Z,1.73
2023-06-05T08:16:40.149Z,4.57
2023-06-05T08:19:08.893Z,3.92
2023-06-05T08:21:38.055Z,1.45
2023-06-05T08:24:07.473Z,5.15
2023-06-05T08:26:37.250Z,4.72
2023-06-05T08:29:07.490Z,3.72
2023-06-05T08:31:37.599Z,15.40
2023-06-05T08:34:08.131Z,18.20
2023-06-05T08:36:36.767Z,11.93
2023-06-05T08:39:05.572Z,4.07
2023-06-05T08:41:36.107Z,7.80
2023-06-05T08:44:05.006Z,8.93
2023-06-05T08:46:33.429Z,5.70
2023-06-05T08:49:10.103Z,8.70
2023-06-05T08:51:40.672Z,7.25
2023-06-05T08:54:14.167Z,4.35
2023-06-05T08:56:44.723Z,6.63
2023-06-05T08:59:16.594Z,3.75
2023-06-05T09:01:46.013Z,1.48
2023-06-05T09:04:15.949Z,3.20
2023-06-05T09:06:48.192Z,3.88
2023-06-05T09:09:17.456Z,4.15
2023-06-05T09:11:46.395Z,5.95
2023-06-05T09:14:15.083Z,2.47
2023-06-05T09:16:44.753Z,2.00
2023-06-05T09:19:15.261Z,4.07
2023-06-05T09:21:53.064Z,7.30
2023-06-05T09:24:24.128Z,17.23
2023-06-05T09:26:57.848Z,33.95
2023-06-05T09:29:28.765Z,12.23
2023-06-05T09:31:59.365Z,15.98
2023-06-05T09:34:31.864Z,2.83
2023-06-05T09:37:01.624Z,3.10
2023-06-05T09:39:31.450Z,4.88
2023-06-05T09:42:01.537Z,3.97
2023-06-05T09:44:32.432Z,2.17
2023-06-05T09:47:02.478Z,2.22
2023-06-05T09:49:34.321Z,2.38
2023-06-05T09:52:03.922Z,5.05
2023-06-05T09:54:33.947Z,3.53
2023-06-05T09:57:04.371Z,3.13
2023-06-05T09:59:34.943Z,3.83
2023-06-05T10:02:05.762Z,3.72
2023-06-05T10:04:42.337Z,2.95
2023-06-05T10:07:11.278Z,1.95
2023-06-05T10:09:40.937Z,2.42
2023-06-05T10:12:10.254Z,2.67
2023-06-05T10:14:42.855Z,3.88
2023-06-05T10:17:13.234Z,5.47
2023-06-05T10:19:45.636Z,3.20
2023-06-05T10:22:14.497Z,2.38
2023-06-05T10:24:48.927Z,3.53
2023-06-05T10:27:49.050Z,2.13
2023-06-05T10:30:45.074Z,3.22
2023-06-05T10:33:30.190Z,1.70
2023-06-05T10:36:10.941Z,1.75
2023-06-05T10:38:41.021Z,3.53
2023-06-05T10:41:09.814Z,2.88
2023-06-05T10:43:48.706Z,3.60
2023-06-05T10:46:31.300Z,4.10
2023-06-05T10:49:10.082Z,2.03
2023-06-05T10:51:43.278Z,2.60
2023-06-05T10:54:16.573Z,2.03
2023-06-05T10:57:00.986Z,2.88
2023-06-05T10:59:31.283Z,3.00
2023-06-05T11:02:24.620Z,2.20
2023-06-05T11:05:14.540Z,3.75
2023-06-05T11:07:46.871Z,3.00
2023-06-05T11:10:21.319Z,1.90
2023-06-05T11:13:01.545Z,2.38
2023-06-05T11:15:40.987Z,2.63
2023-06-05T11:18:35.187Z,6.65
2023-06-05T11:21:04.380Z,1.95
2023-06-05T11:23:34.946Z,3.00
2023-06-05T11:26:41.359Z,2.42
2023-06-05T11:29:16.776Z,2.25
2023-06-05T11:31:48.640Z,4.20
2023-06-05T11:34:17.567Z,2.28
2023-06-05T11:36:46.855Z,5.45
2023-06-05T11:39:16.868Z,3.80
2023-06-05T11:41:46.925Z,3.08
2023-06-05T11:44:16.147Z,3.38
2023-06-05T11:46:45.806Z,5.05
2023-06-05T11:49:27.201Z,4.65
2023-06-05T11:51:56.112Z,3.70
2023-06-05T11:54:31.820Z,4.30
2023-06-05T11:57:02.983Z,6.20
2023-06-05T11:59:32.050Z,2.97
2023-06-05T12:02:00.851Z,4.07
2023-06-05T12:04:29.595Z,4.60
2023-06-05T12:06:58.432Z,4.85
2023-06-05T12:09:27.360Z,2.25
2023-06-05T12:12:07.470Z,3.30
2023-06-05T12:14:36.764Z,3.83
2023-06-05T12:17:11.410Z,3.83
2023-06-05T12:19:40.459Z,5.55
2023-06-05T12:22:10.519Z,3.90
2023-06-05T12:24:39.699Z,3.25
2023-06-05T12:27:10.775Z,4.22
2023-06-05T12:29:41.025Z,4.40
2023-06-05T12:32:23.929Z,6.55
2023-06-05T12:35:01.520Z,5.80
2023-06-05T12:37:35.693Z,4.45
2023-06-05T12:40:09.495Z,2.33
2023-06-05T12:42:40.795Z,1.70
2023-06-05T12:45:10.889Z,3.03
2023-06-05T12:47:40.460Z,4.00
2023-06-05T12:50:13.081Z,3.60
2023-06-05T12:52:42.188Z,3.08
2023-06-05T12:55:12.139Z,6.75
2023-06-05T12:57:42.027Z,3.95
2023-06-05T13:00:14.361Z,4.18
2023-06-05T13:02:46.031Z,6.28
2023-06-05T13:05:15.614Z,5.50
2023-06-05T13:07:44.133Z,2.63
2023-06-05T13:10:13.181Z,3.38
2023-06-05T13:12:43.623Z,2.13
2023-06-05T13:15:13.165Z,5.80
2023-06-05T13:17:44.094Z,4.03
2023-06-05T13:20:13.884Z,8.13
2023-06-05T13:22:42.820Z,7.90
2023-06-05T13:25:12.061Z,7.78
2023-06-05T13:27:42.054Z,6.13
2023-06-05T13:30:11.482Z,4.55
2023-06-05T13:32:40.372Z,4.70
2023-06-05T13:35:10.438Z,5.82
2023-06-05T13:37:39.688Z,5.70
2023-06-05T13:40:11.712Z,2.40
2023-06-05T13:42:42.237Z,2.13
2023-06-05T13:45:12.130Z,5.22
2023-06-05T13:47:40.609Z,5.05
2023-06-05T13:50:10.212Z,2.22
2023-06-05T13:52:38.645Z,5.03
2023-06-05T13:55:08.678Z,4.55
2023-06-05T13:57:37.323Z,5.32
2023-06-05T14:00:09.290Z,4.22
2023-06-05T14:02:39.257Z,2.30
2023-06-05T14:05:11.706Z,4.28
2023-06-05T14:07:48.982Z,4.47
2023-06-05T14:10:20.470Z,2.70
2023-06-05T14:12:48.880Z,3.67
2023-06-05T14:15:19.627Z,4.53
2023-06-05T14:17:48.953Z,2.58
2023-06-05T14:20:17.691Z,3.75
2023-06-05T14:22:46.157Z,6.55
2023-06-05T14:25:14.814Z,7.93
2023-06-05T14:27:43.298Z,2.13
2023-06-05T14:30:12.610Z,2.90
2023-06-05T14:32:42.988Z,2.63
2023-06-05T14:35:11.903Z,3.90
2023-06-05T14:37:40.159Z,5.72
2023-06-05T14:40:10.195Z,2.10
2023-06-05T14:42:38.488Z,3.47
2023-06-05T14:45:08.082Z,4.38
2023-06-05T14:51:15.165Z,2.05
2023-06-05T14:53:43.594Z,6.75
2023-06-05T14:56:12.282Z,4.82
2023-06-05T14:58:40.457Z,3.33
2023-06-05T15:01:09.044Z,4.30
2023-06-05T15:03:37.468Z,4.13
2023-06-05T15:06:20.168Z,6.28
2023-06-05T15:08:53.084Z,6.97
2023-06-05T15:11:22.108Z,2.85
2023-06-05T15:13:50.506Z,3.70
2023-06-05T15:16:25.894Z,2.92
2023-06-05T15:19:01.314Z,4.68
2023-06-05T15:21:30.178Z,2.22
2023-06-05T15:23:59.897Z,5.90
2023-06-05T15:26:28.770Z,4.25
2023-06-05T15:28:57.309Z,5.80
2023-06-05T15:31:26.010Z,3.95
2023-06-05T15:33:54.370Z,5.22
2023-06-05T15:36:22.963Z,6.00
2023-06-05T15:38:51.237Z,3.85
2023-06-05T15:41:21.150Z,4.03
2023-06-05T15:43:49.530Z,2.55
2023-06-05T15:46:18.226Z,4.70
2023-06-05T15:48:46.722Z,5.88
2023-06-05T15:51:15.369Z,2.30
2023-06-05T15:53:55.085Z,2.28
2023-06-05T15:56:27.462Z,3.40
2023-06-05T15:58:55.976Z,2.80
2023-06-05T16:01:24.896Z,2.97
2023-06-05T16:03:53.571Z,4.32
2023-06-05T16:06:22.614Z,5.65
2023-06-05T16:08:51.780Z,4.20
2023-06-05T16:11:21.024Z,3.78
2023-06-05T16:13:50.979Z,5.20
2023-06-05T16:16:19.827Z,4.28
2023-06-05T16:18:48.244Z,6.00
2023-06-05T16:21:17.431Z,3.70
2023-06-05T16:23:46.164Z,3.00
2023-06-05T16:26:14.969Z,7.40
2023-06-05T16:28:43.435Z,4.30
2023-06-05T16:31:15.846Z,7.82
2023-06-05T16:33:44.188Z,5.25
2023-06-05T16:36:14.078Z,3.85
2023-06-05T16:38:43.396Z,5.85
2023-06-05T16:41:12.326Z,9.20
2023-06-05T16:43:40.846Z,5.65
2023-06-05T16:46:09.917Z,6.93
2023-06-05T16:48:39.844Z,4.88
2023-06-05T16:51:11.378Z,8.95
2023-06-05T16:53:40.098Z,7.07
2023-06-05T16:56:08.732Z,13.50
2023-06-05T16:58:39.765Z,18.02
2023-06-05T17:01:08.844Z,11.90
2023-06-05T17:03:37.489Z,16.27
2023-06-05T17:06:09.101Z,32.17
2023-06-05T17:08:38.142Z,8.98
2023-06-05T17:11:06.956Z,16.30
2023-06-05T17:13:35.561Z,7.68
2023-06-05T17:16:04.546Z,17.33
2023-06-05T17:18:32.926Z,15.75
2023-06-05T17:21:01.561Z,18.17
2023-06-05T17:23:31.519Z,12.40
2023-06-05T17:26:00.167Z,23.17
2023-06-05T17:28:28.601Z,38.67
2023-06-05T17:30:57.269Z,25.02
2023-06-05T17:33:25.658Z,13.68
2023-06-05T17:35:54.293Z,25.58
2023-06-05T17:38:22.743Z,19.63
2023-06-05T17:40:52.656Z,12.13
2023-06-05T17:43:21.120Z,11.93
2023-06-05T17:45:49.749Z,11.38
2023-06-05T17:48:18.255Z,12.57
2023-06-05T17:50:47.073Z,8.43
2023-06-05T17:53:17.364Z,29.75
2023-06-05T17:55:46.184Z,25.40
2023-06-05T17:58:17.209Z,17.05
2023-06-05T18:00:46.273Z,18.80
2023-06-05T18:03:15.038Z,18.33
2023-06-05T18:05:43.887Z,12.18
2023-06-05T18:08:13.685Z,8.90
2023-06-05T18:10:42.270Z,10.32
2023-06-05T18:13:11.024Z,11.48
2023-06-05T18:15:41.241Z,7.32
2023-06-05T18:18:10.585Z,13.80
2023-06-05T18:20:39.349Z,22.67
2023-06-05T18:23:07.745Z,18.48
2023-06-05T18:25:36.461Z,15.30
2023-06-05T18:28:04.946Z,10.32
2023-06-05T18:30:33.550Z,14.60
2023-06-05T18:33:03.481Z,10.82
2023-06-05T18:35:32.368Z,13.40
2023-06-05T18:38:00.672Z,18.70
2023-06-05T18:40:30.272Z,12.15
2023-06-05T18:43:00.236Z,13.85
2023-06-05T18:45:28.922Z,14.57
2023-06-05T18:47:57.314Z,11.18
2023-06-05T18:50:28.384Z,22.85
2023-06-05T18:52:57.046Z,33.10
2023-06-05T18:55:26.452Z,18.77
2023-06-05T18:57:54.857Z,10.27
2023-06-05T19:00:25.436Z,9.82
2023-06-05T19:02:53.989Z,13.40
2023-06-05T19:05:23.018Z,16.92
2023-06-05T19:07:52.735Z,29.75
2023-06-05T19:10:21.589Z,23.45
2023-06-05T19:12:49.865Z,22.27
2023-06-05T19:15:19.569Z,16.42
2023-06-05T19:17:47.974Z,17.58
2023-06-05T19:20:16.849Z,11.65
2023-06-05T19:22:45.175Z,14.60
2023-06-05T19:25:15.629Z,16.85
2023-06-05T19:27:44.057Z,17.10
2023-06-05T19:30:14.320Z,10.18
2023-06-05T19:32:43.082Z,11.07
2023-06-05T19:35:12.511Z,8.80
2023-06-05T19:37:41.132Z,5.97
2023-06-05T19:40:10.667Z,11.02
2023-06-05T19:42:41.632Z,9.38
2023-06-05T19:45:13.320Z,21.10
2023-06-05T19:47:42.730Z,16.58
2023-06-05T19:50:14.142Z,8.70
2023-06-05T19:52:42.791Z,6.13
2023-06-05T19:55:11.768Z,15.93
2023-06-05T19:57:42.191Z,7.22
2023-06-05T20:00:11.631Z,7.78
2023-06-05T20:02:44.171Z,5.05
2023-06-05T20:05:14.044Z,3.40
2023-06-05T20:07:42.570Z,5.10
2023-06-05T20:10:12.172Z,5.30
2023-06-05T20:12:42.077Z,7.07
2023-06-05T20:15:11.847Z,4.07
2023-06-05T20:17:40.320Z,5.00
2023-06-05T20:20:10.403Z,12.02
2023-06-05T20:22:38.737Z,5.72
2023-06-05T20:25:09.716Z,3.47
2023-06-05T20:27:39.242Z,5.90
2023-06-05T20:30:10.517Z,6.63
2023-06-05T20:32:39.059Z,5.53
2023-06-05T20:35:09.584Z,4.97
2023-06-05T20:37:38.937Z,7.78
2023-06-05T20:40:11.074Z,7.15
2023-06-05T20:42:39.725Z,5.20
2023-06-05T20:45:11.580Z,3.53
2023-06-05T20:47:40.273Z,6.18
2023-06-05T20:50:10.729Z,7.90
2023-06-05T20:52:39.109Z,6.53
2023-06-05T20:55:08.470Z,5.03
2023-06-05T20:57:37.249Z,5.40
2023-06-05T21:00:10.245Z,3.30
2023-06-05T21:02:40.314Z,3.95
2023-06-05T21:05:09.564Z,4.80
2023-06-05T21:07:38.250Z,5.40
2023-06-05T21:10:07.424Z,4.43
2023-06-05T21:12:35.740Z,4.95
2023-06-05T21:15:04.748Z,5.45
2023-06-05T21:17:34.809Z,5.97
2023-06-05T21:20:06.369Z,9.05
2023-06-05T21:22:36.226Z,4.75
2023-06-05T21:25:05.566Z,5.43
2023-06-05T21:27:34.053Z,3.50
2023-06-05T21:30:02.718Z,4.15
2023-06-05T21:32:31.276Z,4.38
2023-06-05T21:34:59.906Z,5.90
2023-06-05T21:37:29.572Z,4.60
2023-06-05T21:39:58.468Z,4.32
2023-06-05T21:42:26.919Z,3.75
2023-06-05T21:44:55.599Z,4.78
2023-06-05T21:47:24.021Z,7.80
2023-06-05T21:49:52.621Z,6.97
2023-06-05T21:52:20.946Z,7.60
2023-06-05T21:54:51.045Z,6.40
2023-06-05T21:57:19.710Z,4.88
2023-06-05T21:59:48.159Z,8.27
2023-06-05T22:02:16.665Z,4.97
2023-06-05T22:04:47.411Z,11.75
2023-06-05T22:07:17.734Z,7.68
2023-06-05T22:09:46.487Z,9.88
2023-06-05T22:12:21.894Z,6.30
2023-06-05T22:14:52.716Z,8.88
2023-06-05T22:17:26.167Z,7.05
2023-06-05T22:19:56.177Z,6.40
2023-06-05T22:22:25.284Z,9.20
2023-06-05T22:24:57.735Z,6.78
2023-06-05T22:27:27.719Z,9.90
2023-06-05T22:29:56.775Z,7.20
2023-06-05T22:32:25.701Z,10.43
2023-06-05T22:34:54.589Z,6.25
2023-06-05T22:37:26.273Z,5.15
2023-06-05T22:39:55.036Z,6.60
2023-06-05T22:42:23.534Z,5.47
2023-06-05T22:44:53.535Z,5.75
2023-06-05T22:47:21.947Z,5.53
2023-06-05T22:49:53.863Z,6.90
2023-06-05T22:52:22.522Z,6.93
2023-06-05T22:54:51.614Z,8.30
2023-06-05T22:57:20.061Z,5.43
2023-06-05T22:59:49.756Z,5.57
2023-06-05T23:02:19.711Z,7.88
2023-06-05T23:04:50.073Z,5.40
2023-06-05T23:07:19.254Z,6.00
2023-06-05T23:09:47.845Z,8.73
2023-06-05T23:12:16.558Z,6.55
2023-06-05T23:14:45.149Z,8.32
2023-06-05T23:17:13.763Z,9.70
2023-06-05T23:19:43.646Z,9.27
2023-06-05T23:22:11.979Z,13.80
2023-06-05T23:24:40.602Z,6.35
2023-06-05T23:27:10.436Z,7.20
2023-06-05T23:29:39.673Z,7.03
2023-06-05T23:32:09.129Z,8.80
2023-06-05T23:34:37.847Z,5.53
2023-06-05T23:37:09.770Z,8.70
2023-06-05T23:39:38.555Z,7.20
2023-06-05T23:42:09.228Z,4.40
2023-06-05T23:44:37.894Z,6.30
2023-06-05T23:47:06.901Z,6.03
2023-06-05T23:49:35.757Z,6.63
2023-06-05T23:52:04.561Z,7.72
2023-06-05T23:54:34.909Z,7.05
2023-06-05T23:57:03.250Z,8.48
2023-06-05T23:59:31.919Z,6.28
